Miller, Nebraska
Current Conditions -  °F | °C
As of 4:35 PM on Sunday 23 Nov 2014 (Local Time) from KLXN Reporting Station
Clear Clear  
Wind Chill: 41°   Ceiling: Unl
Heat Index: 48°   Visibility: 10mi
Dew Point: 17°   Wind: 20mph
Humidity: 29%   Direction: 330°NNW
Pressure: 29.64"   Gusts: 32mph
Location:  40.93°N, 99.39°W
Report Text: KLXN 232235Z AUTO 33017G28KT 10SM CLR 09/M08 A2964 RMK AO2 T00871084
Loading
Personal Weather Stations






























Interactive Weather Map New forecast layout! Learn more

10-Day Weather Forecast

Advertisements
Track Severe Weather on mobile